Time;durP1;ratioP1;P1;durP2;ratioP2;P2;SDS_P1;SDS_P2;PMS_P1;PMS_P2;Temp;Humidity;BMP_temperature;BMP_pressure;BME280_temperature;BME280_humidity;BME280_pressure;Samples;Min_cycle;Max_cycle;Signal;HPM_P1;HPM_P2
2021/06/23 00:04:04;;;;;;;;;;;17.40;99.90;;;16.41;100.00;95707.88;10504683;28;2466;-81
2021/06/23 00:09:06;;;;;;;;;;;18.00;99.90;;;16.28;100.00;95702.50;10487616;28;2139;-81
2021/06/23 00:14:09;;;;;;;;;;;17.20;99.90;;;16.34;100.00;95714.81;10498493;28;1965;-82
2021/06/23 00:19:12;;;;;;;;;;;17.10;99.90;;;16.36;100.00;95704.47;10511005;28;2114;-81
2021/06/23 00:24:15;;;;;;;;;;;17.20;99.90;;;16.30;100.00;95703.00;10483765;28;2050;-81
2021/06/23 00:29:17;;;;;;;;;;;17.20;99.90;;;16.19;100.00;95691.63;10503444;28;2191;-80
2021/06/23 00:34:20;;;;;;;;;;;17.10;99.90;;;16.07;100.00;95694.91;10501854;28;2081;-82
2021/06/23 00:39:23;;;;;;;;;;;17.00;99.90;;;16.08;100.00;95704.63;10493168;28;2107;-81
2021/06/23 00:44:26;;;;;;;;;;;17.00;99.90;;;15.92;100.00;95706.13;10502618;28;2094;-80
2021/06/23 00:49:28;;;;;;;;;;;16.90;99.90;;;15.89;100.00;95715.66;10490441;28;2052;-80
2021/06/23 00:54:32;;;;;;;;;;;16.80;99.90;;;15.93;100.00;95713.94;10502994;28;2180;-82
2021/06/23 00:59:34;;;;;;;;;;;16.80;99.90;;;15.93;100.00;95703.09;10482421;28;2038;-81
2021/06/23 01:04:37;;;;;;;;;;;16.90;99.90;;;15.95;100.00;95705.50;10505045;28;2197;-82
2021/06/23 01:09:40;;;;;;;;;;;16.90;99.90;;;15.97;100.00;95710.63;10501273;28;2242;-82
2021/06/23 01:14:42;;;;;;;;;;;16.90;99.90;;;16.01;100.00;95715.13;10472648;28;2187;-81
2021/06/23 01:19:45;;;;;;;;;;;17.00;99.90;;;16.06;100.00;95706.84;10498215;28;2028;-81
2021/06/23 01:24:48;;;;;;;;;;;17.00;99.90;;;16.12;100.00;95700.19;10506224;28;2218;-80
2021/06/23 01:29:50;;;;;;;;;;;17.00;99.90;;;16.17;100.00;95700.06;10502084;28;2162;-79
2021/06/23 01:34:53;;;;;;;;;;;17.10;99.90;;;16.18;100.00;95698.97;10515623;28;2134;-81
2021/06/23 01:39:58;;;;;;;;;;;17.10;99.90;;;16.17;100.00;95691.94;10523086;28;2143;-81
2021/06/23 01:45:01;;;;;;;;;;;17.10;99.90;;;16.17;100.00;95678.38;10499768;28;2103;-80
2021/06/23 01:50:03;;;;;;;;;;;17.10;99.90;;;16.18;100.00;95682.69;10487075;28;2038;-80
2021/06/23 01:55:06;;;;;;;;;;;17.10;99.90;;;16.17;100.00;95686.50;10483868;28;2078;-80
2021/06/23 02:00:09;;;;;;;;;;;17.10;99.90;;;16.14;100.00;95689.84;10508204;28;1836;-81
2021/06/23 02:05:12;;;;;;;;;;;17.10;99.90;;;16.19;100.00;95681.56;10479410;28;1898;-80
2021/06/23 02:10:15;;;;;;;;;;;17.20;99.90;;;16.17;100.00;95694.66;10508589;28;2031;-80
2021/06/23 02:15:17;;;;;;;;;;;17.20;99.90;;;16.16;100.00;95706.63;10490391;28;2078;-80
2021/06/23 02:20:20;;;;;;;;;;;17.20;99.90;;;16.18;100.00;95704.38;10524257;28;2150;-79
2021/06/23 02:25:23;;;;;;;;;;;17.20;99.90;;;16.20;100.00;95706.78;10495881;28;2243;-78
2021/06/23 02:30:26;;;;;;;;;;;17.20;99.90;;;16.26;100.00;95716.38;10491236;28;2046;-80
2021/06/23 02:35:30;;;;;;;;;;;17.20;99.90;;;16.24;100.00;95726.75;10489171;28;2094;-80
2021/06/23 02:40:33;;;;;;;;;;;17.20;99.90;;;16.17;100.00;95712.84;10494211;28;2007;-80
2021/06/23 02:45:35;;;;;;;;;;;17.20;99.90;;;16.15;100.00;95718.53;10512164;28;2218;-80
2021/06/23 02:50:38;;;;;;;;;;;17.10;99.90;;;16.08;100.00;95715.47;10484693;28;2076;-81
2021/06/23 02:55:41;;;;;;;;;;;17.10;99.90;;;16.11;100.00;95719.50;10481176;28;2060;-81
2021/06/23 03:00:43;;;;;;;;;;;17.60;99.90;;;16.16;100.00;95722.88;10483333;28;2031;-79
2021/06/23 03:05:46;;;;;;;;;;;17.10;99.90;;;16.24;100.00;95737.59;10489401;28;2063;-80
2021/06/23 03:10:49;;;;;;;;;;;17.20;99.90;;;16.17;100.00;95735.31;10483828;28;2079;-81
2021/06/23 03:15:52;;;;;;;;;;;17.20;99.90;;;16.12;100.00;95740.88;10506483;28;2066;-81
2021/06/23 03:20:55;;;;;;;;;;;17.10;99.90;;;16.12;100.00;95749.00;10480782;28;2171;-81
2021/06/23 03:25:57;;;;;;;;;;;17.10;99.90;;;16.24;100.00;95766.63;10493186;28;2059;-80
2021/06/23 03:31:00;;;;;;;;;;;17.10;99.90;;;16.39;100.00;95777.09;10506865;28;2179;-81
2021/06/23 03:36:03;;;;;;;;;;;17.20;99.90;;;16.34;100.00;95783.44;10512500;28;2091;-81
2021/06/23 03:41:06;;;;;;;;;;;17.30;99.90;;;16.52;100.00;95789.78;10507426;28;2064;-80
2021/06/23 03:46:09;;;;;;;;;;;17.40;99.90;;;16.50;100.00;95794.72;10532441;28;2070;-79
2021/06/23 03:51:11;;;;;;;;;;;17.40;99.90;;;16.49;100.00;95795.84;10502688;28;2130;-79
2021/06/23 03:56:14;;;;;;;;;;;17.40;99.90;;;16.63;100.00;95796.53;10489574;28;2122;-80
2021/06/23 04:01:17;;;;;;;;;;;17.50;99.90;;;16.62;100.00;95796.88;10494204;28;2068;-80
2021/06/23 04:06:20;;;;;;;;;;;17.50;99.90;;;16.52;100.00;95795.19;10500015;28;2110;-79
2021/06/23 04:11:22;;;;;;;;;;;17.50;99.90;;;16.53;100.00;95796.00;10496266;28;2155;-80
2021/06/23 04:16:29;;;;;;;;;;;17.50;99.90;;;16.49;100.00;95784.97;10488739;28;2085;-81
2021/06/23 04:21:51;;;;;;;;;;;17.40;99.90;;;16.67;100.00;95786.69;10494853;28;2123;-79
2021/06/23 04:27:14;;;;;;;;;;;17.60;99.90;;;16.89;100.00;95779.59;10500232;28;2087;-81
2021/06/23 04:32:17;;;;;;;;;;;17.60;99.90;;;17.01;100.00;95782.53;10493371;28;2064;-80
2021/06/23 04:37:19;;;;;;;;;;;17.80;99.90;;;17.14;100.00;95789.75;10487579;28;1999;-82
2021/06/23 04:42:25;;;;;;;;;;;17.90;99.90;;;17.47;100.00;95798.31;10500861;28;2099;-80
2021/06/23 04:47:28;;;;;;;;;;;18.10;99.90;;;17.58;100.00;95793.38;10506880;28;2394;-80
2021/06/23 04:52:31;;;;;;;;;;;18.30;99.90;;;17.59;100.00;95786.84;10520184;28;1803;-81
2021/06/23 04:57:34;;;;;;;;;;;18.30;99.90;;;17.37;100.00;95806.78;10486867;28;2259;-80
2021/06/23 05:02:37;;;;;;;;;;;18.30;99.90;;;17.19;100.00;95816.78;10503170;28;2127;-80
2021/06/23 05:07:39;;;;;;;;;;;18.20;99.90;;;17.29;100.00;95816.47;10489147;28;2132;-81
2021/06/23 05:12:42;;;;;;;;;;;18.20;99.90;;;17.29;100.00;95824.63;10479840;28;2245;-80
2021/06/23 05:17:45;;;;;;;;;;;18.20;99.90;;;17.47;100.00;95830.94;10506529;28;2071;-80
2021/06/23 05:22:48;;;;;;;;;;;18.20;99.90;;;17.65;100.00;95831.78;10492314;28;2051;-81
2021/06/23 05:27:51;;;;;;;;;;;18.40;99.90;;;17.54;100.00;95828.53;10502350;28;1957;-82
2021/06/23 05:32:54;;;;;;;;;;;18.40;99.90;;;17.63;100.00;95825.88;10499471;28;2232;-81
2021/06/23 05:37:57;;;;;;;;;;;18.40;99.90;;;17.74;100.00;95829.88;10504746;28;2119;-79
2021/06/23 05:42:59;;;;;;;;;;;18.60;99.90;;;17.69;100.00;95838.19;10500408;28;2103;-78
2021/06/23 05:48:02;;;;;;;;;;;18.70;99.90;;;17.41;100.00;95839.53;10498140;28;2070;-78
2021/06/23 05:53:05;;;;;;;;;;;18.50;99.90;;;17.50;100.00;95841.19;10462250;28;2069;-80
2021/06/23 05:58:08;;;;;;;;;;;18.40;99.90;;;17.42;100.00;95857.44;10505568;28;2075;-78
2021/06/23 06:03:11;;;;;;;;;;;18.40;99.90;;;17.24;100.00;95854.69;10515226;28;2138;-79
2021/06/23 06:08:13;;;;;;;;;;;18.20;99.90;;;17.36;100.00;95859.50;10517254;28;2396;-80
2021/06/23 06:13:16;;;;;;;;;;;18.30;99.90;;;17.49;100.00;95863.22;10501140;28;2091;-75
2021/06/23 06:18:19;;;;;;;;;;;18.50;99.90;;;17.81;99.66;95862.03;10513358;28;2534;-79
2021/06/23 06:23:21;;;;;;;;;;;18.50;99.90;;;17.91;98.32;95860.94;10504580;28;2301;-77
2021/06/23 06:28:26;;;;;;;;;;;18.80;99.90;;;18.32;97.60;95868.63;10512281;28;2063;-80
2021/06/23 06:33:29;;;;;;;;;;;18.90;99.90;;;18.96;93.42;95866.06;10499683;28;1341;-78
2021/06/23 06:38:31;;;;;;;;;;;19.30;99.90;;;19.47;88.44;95860.69;10505091;28;1891;-81
2021/06/23 06:43:34;;;;;;;;;;;19.70;99.90;;;19.56;87.46;95853.28;10490332;28;2055;-78
2021/06/23 06:48:38;;;;;;;;;;;20.20;99.90;;;19.58;83.57;95856.50;10471599;28;1941;-79
2021/06/23 06:53:41;;;;;;;;;;;20.20;99.90;;;19.86;85.11;95865.84;10468629;28;2028;-79
2021/06/23 06:58:44;;;;;;;;;;;20.50;99.90;;;19.65;85.13;95873.16;10479270;28;2068;-79
2021/06/23 07:03:47;;;;;;;;;;;20.50;99.90;;;19.72;82.54;95873.44;10466419;28;2079;-78
2021/06/23 07:08:50;;;;;;;;;;;20.50;99.90;;;19.66;84.13;95870.13;10479489;28;1918;-77
2021/06/23 07:13:56;;;;;;;;;;;20.50;99.90;;;20.01;78.39;95863.66;10470483;28;2044;-79
2021/06/23 07:18:59;;;;;;;;;;;20.80;99.90;;;20.46;77.18;95864.59;10490002;28;1867;-79
2021/06/23 07:24:01;;;;;;;;;;;21.00;99.90;;;20.40;80.56;95865.91;10487702;28;2040;-79
2021/06/23 07:29:06;;;;;;;;;;;21.10;99.90;;;20.11;79.51;95858.59;10480566;28;2031;-79
2021/06/23 07:39:31;;;;;;;;;;;21.10;99.90;;;21.77;72.88;95844.84;10460452;28;2044;-80
2021/06/23 07:44:35;;;;;;;;;;;22.10;99.90;;;22.19;71.95;95848.09;10483019;28;2044;-81
2021/06/23 07:49:40;;;;;;;;;;;22.90;99.90;;;22.55;66.71;95841.72;10470408;28;1886;-81
2021/06/23 07:54:51;;;;;;;;;;;23.40;99.90;;;21.98;68.33;95845.50;10490375;28;2083;-81
2021/06/23 08:10:38;;;;;;;;;;;23.30;99.90;;;22.70;61.20;95847.56;10499126;28;1966;-79
2021/06/23 08:15:41;;;;;;;;;;;23.60;99.90;;;22.76;60.45;95846.97;10487248;28;2023;-79
2021/06/23 08:20:44;;;;;;;;;;;23.50;99.90;;;22.70;64.17;95837.41;10493444;28;1942;-80
2021/06/23 08:25:46;;;;;;;;;;;23.50;99.90;;;22.77;60.96;95836.81;10509793;28;1926;-79
2021/06/23 08:30:49;;;;;;;;;;;23.70;99.90;;;23.19;61.76;95832.47;10518191;28;1915;-79
2021/06/23 08:35:52;;;;;;;;;;;23.90;99.90;;;22.98;60.13;95826.47;10520258;28;1822;-79
2021/06/23 08:40:55;;;;;;;;;;;23.90;99.90;;;22.68;60.75;95828.75;10512957;28;1981;-79
2021/06/23 08:45:57;;;;;;;;;;;23.90;99.90;;;23.21;58.90;95829.38;10490802;28;2077;-79
2021/06/23 08:51:00;;;;;;;;;;;24.00;99.90;;;22.42;60.55;95831.94;10490755;28;1970;-77
2021/06/23 08:56:04;;;;;;;;;;;23.70;99.90;;;22.94;60.40;95822.81;10482020;28;2023;-79
2021/06/23 09:01:06;;;;;;;;;;;23.70;99.90;;;23.07;58.87;95829.81;10488594;28;1875;-79
2021/06/23 09:06:09;;;;;;;;;;;23.90;99.90;;;23.15;57.26;95820.63;10499016;28;2051;-79
2021/06/23 09:11:12;;;;;;;;;;;24.00;99.90;;;23.33;56.47;95828.50;10493411;28;2150;-80
2021/06/23 09:16:15;;;;;;;;;;;24.20;99.90;;;24.24;56.37;95820.84;10505051;28;2119;-80
2021/06/23 09:21:18;;;;;;;;;;;24.70;99.90;;;24.21;50.33;95824.31;10507918;28;2074;-78
2021/06/23 09:26:20;;;;;;;;;;;25.20;99.90;;;24.54;54.39;95812.03;10478318;28;2117;-80
2021/06/23 09:31:23;;;;;;;;;;;25.30;99.90;;;24.49;51.51;95815.06;10490598;28;2241;-79
2021/06/23 09:36:26;;;;;;;;;;;25.50;99.90;;;24.16;54.08;95813.59;10481821;28;2146;-79
2021/06/23 09:41:36;;;;;;;;;;;25.20;99.90;;;24.98;49.93;95811.69;10482838;28;2172;-79
2021/06/23 09:46:39;;;;;;;;;;;25.70;99.90;;;25.79;50.09;95811.53;10492750;28;2123;-79
2021/06/23 09:51:42;;;;;;;;;;;26.10;99.90;;;26.17;48.55;95810.50;10490698;28;2214;-80
2021/06/23 09:56:45;;;;;;;;;;;26.60;99.90;;;25.33;50.50;95806.84;10480124;28;2132;-79
2021/06/23 10:01:48;;;;;;;;;;;26.50;99.90;;;25.01;50.57;95809.03;10488747;28;2056;-79
2021/06/23 10:06:51;;;;;;;;;;;26.00;99.90;;;24.21;54.28;95807.81;10495823;28;2184;-80
2021/06/23 10:11:54;;;;;;;;;;;25.60;99.90;;;25.19;50.84;95795.59;10487234;28;2048;-79
2021/06/23 10:16:56;;;;;;;;;;;25.90;99.90;;;23.87;55.93;95805.91;10483982;28;2097;-79
2021/06/23 10:22:00;;;;;;;;;;;25.50;99.90;;;24.20;54.76;95792.50;10489292;28;2020;-79
2021/06/23 10:27:16;;;;;;;;;;;25.10;99.90;;;23.54;55.68;95795.28;10490054;28;2071;-79
2021/06/23 10:32:18;;;;;;;;;;;24.80;99.90;;;24.13;54.05;95778.63;10471772;28;2153;-77
2021/06/23 10:37:21;;;;;;;;;;;25.00;99.90;;;24.88;52.45;95787.56;10475070;28;2085;-81
2021/06/23 10:42:26;;;;;;;;;;;25.80;99.90;;;24.93;51.67;95788.03;10475185;28;2163;-79
2021/06/23 10:47:28;;;;;;;;;;;26.40;99.90;;;24.66;51.68;95780.88;10495099;28;2356;-78
2021/06/23 10:52:31;;;;;;;;;;;26.10;99.90;;;24.59;50.36;95770.53;10496225;28;2081;-79
2021/06/23 10:57:36;;;;;;;;;;;25.70;99.90;;;26.05;46.93;95772.16;10492010;28;2250;-79
2021/06/23 11:02:41;;;;;;;;;;;27.10;99.90;;;25.62;46.23;95760.50;10505559;28;2028;-79
2021/06/23 11:07:44;;;;;;;;;;;26.80;99.90;;;24.57;49.33;95761.88;10503101;28;2080;-79
2021/06/23 11:12:47;;;;;;;;;;;27.00;99.90;;;25.94;44.60;95773.97;10496544;28;2159;-78
2021/06/23 11:17:50;;;;;;;;;;;27.60;99.90;;;25.91;45.40;95756.25;10496478;28;2079;-79
2021/06/23 11:22:53;;;;;;;;;;;28.00;99.90;;;26.22;44.70;95759.78;10494892;28;2024;-79
2021/06/23 11:27:55;;;;;;;;;;;28.60;99.90;;;26.10;45.48;95753.34;10492755;28;2032;-79
2021/06/23 11:32:58;;;;;;;;;;;28.50;99.90;;;26.33;45.36;95767.00;10480941;28;2028;-79
2021/06/23 11:38:01;;;;;;;;;;;27.90;99.90;;;25.92;44.19;95754.28;10505871;28;2043;-78
2021/06/23 11:43:04;;;;;;;;;;;27.30;99.90;;;25.82;45.76;95756.50;10485182;28;2093;-79
2021/06/23 11:48:07;;;;;;;;;;;27.10;99.90;;;26.22;46.78;95752.31;10503936;28;1957;-80
2021/06/23 11:53:10;;;;;;;;;;;26.90;99.90;;;26.21;45.66;95759.00;10500952;28;2012;-80
2021/06/23 11:58:12;;;;;;;;;;;27.20;99.90;;;26.38;45.28;95752.88;10501422;28;2027;-78
2021/06/23 12:03:15;;;;;;;;;;;27.30;99.90;;;25.25;46.23;95758.34;10498757;28;2095;-78
2021/06/23 12:08:18;;;;;;;;;;;26.80;99.90;;;25.46;45.93;95765.38;10483634;28;1922;-79
2021/06/23 12:13:22;;;;;;;;;;;26.50;99.90;;;25.99;45.05;95752.41;10486438;28;2100;-78
2021/06/23 12:18:25;;;;;;;;;;;26.70;99.90;;;26.12;46.01;95750.22;10498282;28;1966;-78
2021/06/23 12:23:28;;;;;;;;;;;26.90;99.90;;;26.11;47.67;95740.38;10504483;28;2039;-79
2021/06/23 12:28:30;;;;;;;;;;;27.30;99.90;;;26.38;45.64;95741.88;10497936;28;2087;-79
2021/06/23 12:33:34;;;;;;;;;;;27.50;99.90;;;26.01;46.85;95743.75;10503877;28;1927;-78
2021/06/23 12:38:37;;;;;;;;;;;27.40;99.90;;;24.64;50.82;95739.22;10495414;28;1994;-78
2021/06/23 12:43:40;;;;;;;;;;;26.20;99.90;;;24.99;49.64;95734.34;10503087;28;2227;-78
2021/06/23 12:48:43;;;;;;;;;;;25.90;99.90;;;25.82;48.55;95736.44;10490291;28;2112;-79
2021/06/23 12:53:45;;;;;;;;;;;26.50;99.90;;;25.45;48.06;95728.00;10500676;28;1825;-79
2021/06/23 12:58:48;;;;;;;;;;;26.60;99.90;;;24.81;48.16;95722.22;10504707;28;1851;-78
2021/06/23 13:03:51;;;;;;;;;;;26.00;99.90;;;25.09;48.90;95724.72;10515765;28;2111;-79
2021/06/23 13:08:54;;;;;;;;;;;26.10;99.90;;;25.29;48.44;95719.91;10504952;28;1548;-78
2021/06/23 13:13:56;;;;;;;;;;;26.40;99.90;;;25.68;45.97;95731.50;10496417;28;1883;-78
2021/06/23 13:18:59;;;;;;;;;;;26.90;99.90;;;25.20;47.54;95728.44;10491359;28;1948;-79
2021/06/23 13:24:02;;;;;;;;;;;26.40;99.90;;;25.12;48.26;95718.47;10498851;28;2007;-79
2021/06/23 13:29:05;;;;;;;;;;;26.10;99.90;;;25.49;46.48;95701.34;10513702;28;1930;-78
2021/06/23 13:34:09;;;;;;;;;;;26.30;99.90;;;26.07;46.18;95698.19;10483107;28;2217;-77
2021/06/23 13:39:13;;;;;;;;;;;26.80;99.90;;;25.84;45.95;95685.34;10489388;28;1878;-79
2021/06/23 13:44:15;;;;;;;;;;;27.00;99.90;;;26.00;46.52;95687.88;10495258;28;2008;-79
2021/06/23 13:49:19;;;;;;;;;;;27.10;99.90;;;26.01;47.73;95710.72;10488839;28;2074;-78
2021/06/23 13:54:21;;;;;;;;;;;26.90;99.90;;;26.85;44.82;95704.59;10496837;28;1847;-79
2021/06/23 13:59:24;;;;;;;;;;;27.40;99.90;;;25.44;45.28;95709.91;10470897;28;2154;-80
2021/06/23 14:04:27;;;;;;;;;;;26.90;99.90;;;25.26;46.32;95685.69;10484589;28;2016;-80
2021/06/23 14:09:29;;;;;;;;;;;26.40;99.90;;;25.48;46.33;95688.75;10493311;28;2155;-78
2021/06/23 14:14:32;;;;;;;;;;;26.50;99.90;;;26.73;43.94;95684.78;10490773;28;2024;-77
2021/06/23 14:19:35;;;;;;;;;;;27.20;99.90;;;26.72;46.96;95689.50;10490850;28;2087;-80
2021/06/23 14:24:38;;;;;;;;;;;27.60;99.90;;;25.53;48.50;95688.44;10500042;28;2139;-79
2021/06/23 14:30:01;;;;;;;;;;;27.10;99.90;;;24.99;49.94;95673.03;10501121;28;2036;-78
2021/06/23 14:35:04;;;;;;;;;;;26.20;99.90;;;25.49;48.75;95668.31;10479063;28;2218;-78
2021/06/23 14:40:07;;;;;;;;;;;26.10;99.90;;;26.14;49.15;95688.06;10478492;28;2260;-79
2021/06/23 14:45:10;;;;;;;;;;;27.00;99.90;;;25.45;51.33;95672.97;10474058;28;2187;-80
2021/06/23 14:50:13;;;;;;;;;;;26.80;99.90;;;24.88;52.76;95661.09;10490228;28;2082;-80
2021/06/23 14:55:23;;;;;;;;;;;26.20;99.90;;;24.40;54.05;95658.72;10485606;28;2068;-78
2021/06/23 15:00:26;;;;;;;;;;;25.50;99.90;;;24.40;53.90;95646.94;10504993;28;2098;-80
2021/06/23 15:05:29;;;;;;;;;;;25.30;99.90;;;24.64;53.31;95659.53;10498849;28;2086;-77
2021/06/23 15:10:32;;;;;;;;;;;25.50;99.90;;;25.01;52.36;95648.75;10490497;28;2222;-78
2021/06/23 15:15:35;;;;;;;;;;;25.90;99.90;;;26.01;50.69;95661.13;10493850;28;2014;-77
2021/06/23 15:20:40;;;;;;;;;;;26.50;99.90;;;26.30;49.72;95652.03;10487756;28;2111;-78
2021/06/23 15:25:42;;;;;;;;;;;27.10;99.90;;;26.86;48.11;95645.50;10479174;28;2139;-80
2021/06/23 15:30:45;;;;;;;;;;;27.50;99.90;;;26.48;48.49;95640.44;10479090;28;2216;-78
2021/06/23 15:35:48;;;;;;;;;;;27.60;99.90;;;25.68;50.08;95639.88;10494378;28;2173;-76
2021/06/23 15:40:50;;;;;;;;;;;27.00;99.90;;;25.38;51.78;95620.59;10478377;28;2060;-79
2021/06/23 15:45:53;;;;;;;;;;;26.40;99.90;;;24.99;52.79;95607.84;10498592;28;2032;-78
2021/06/23 15:50:56;;;;;;;;;;;26.10;99.90;;;24.96;52.46;95614.09;10496436;28;2079;-77
2021/06/23 15:55:59;;;;;;;;;;;26.00;99.90;;;25.09;51.99;95633.97;10493227;28;2034;-79
2021/06/23 16:01:03;;;;;;;;;;;25.80;99.90;;;24.92;52.84;95631.69;10483512;28;1828;-79
2021/06/23 16:06:06;;;;;;;;;;;25.80;99.90;;;24.75;53.33;95611.81;10489207;28;2059;-81
2021/06/23 16:11:11;;;;;;;;;;;25.80;99.90;;;24.97;53.54;95621.16;10493500;28;1906;-82
2021/06/23 16:16:14;;;;;;;;;;;25.80;99.90;;;24.73;54.14;95633.34;10480377;28;2052;-76
2021/06/23 16:21:18;;;;;;;;;;;25.80;99.90;;;24.50;54.18;95632.59;10485882;28;1993;-77
2021/06/23 16:26:20;;;;;;;;;;;25.50;99.90;;;24.43;54.73;95625.03;10483969;28;2339;-79
2021/06/23 16:31:23;;;;;;;;;;;25.40;99.90;;;24.34;54.56;95609.94;10490046;28;2032;-79
2021/06/23 16:36:26;;;;;;;;;;;25.30;99.90;;;24.57;53.72;95605.22;10485787;28;2048;-77
2021/06/23 16:41:29;;;;;;;;;;;25.40;99.90;;;24.62;53.62;95588.44;10489276;28;2147;-80
2021/06/23 16:46:32;;;;;;;;;;;25.50;99.90;;;24.14;54.62;95577.00;10491626;28;2114;-78
2021/06/23 16:51:35;;;;;;;;;;;25.20;99.90;;;24.02;55.38;95577.16;10493105;28;1824;-77
2021/06/23 16:56:38;;;;;;;;;;;25.10;99.90;;;23.92;56.16;95583.25;10481765;28;1967;-78
2021/06/23 17:01:40;;;;;;;;;;;24.90;99.90;;;23.67;57.70;95591.81;10471746;28;2131;-79
2021/06/23 17:06:46;;;;;;;;;;;24.70;99.90;;;23.38;58.85;95573.16;10481953;28;2055;-79
2021/06/23 17:11:49;;;;;;;;;;;24.50;99.90;;;23.27;59.29;95580.34;10477738;28;2004;-79
2021/06/23 17:16:51;;;;;;;;;;;24.30;99.90;;;23.31;59.59;95583.97;10483408;28;1879;-81
2021/06/23 17:21:54;;;;;;;;;;;24.20;99.90;;;23.32;59.80;95567.16;10484828;28;2006;-79
2021/06/23 17:26:57;;;;;;;;;;;24.20;99.90;;;23.24;60.08;95548.97;10499373;28;2083;-78
2021/06/23 17:32:00;;;;;;;;;;;24.10;99.90;;;23.11;60.56;95556.53;10524050;28;1808;-78
2021/06/23 17:37:02;;;;;;;;;;;24.10;99.90;;;23.12;60.64;95571.84;10523457;28;2056;-79
2021/06/23 17:42:05;;;;;;;;;;;24.00;99.90;;;23.06;60.96;95567.00;10522486;28;1899;-80
2021/06/23 17:47:08;;;;;;;;;;;24.00;99.90;;;22.86;61.36;95546.94;10514616;28;2138;-79
2021/06/23 17:52:10;;;;;;;;;;;23.90;99.90;;;22.88;61.41;95552.88;10525141;28;1855;-79
2021/06/23 17:57:14;;;;;;;;;;;23.80;99.90;;;22.80;61.67;95562.88;10513367;28;1961;-76
2021/06/23 18:02:16;;;;;;;;;;;23.70;99.90;;;22.71;64.50;95547.78;10502471;28;2245;-79
2021/06/23 18:07:19;;;;;;;;;;;23.70;99.90;;;20.51;80.65;95512.16;10501236;28;1957;-78
2021/06/23 18:12:22;;;;;;;;;;;22.30;99.90;;;19.66;90.52;95502.00;10519703;28;2032;-78
2021/06/23 18:17:25;;;;;;;;;;;20.90;99.90;;;19.57;93.13;95516.81;10485732;28;1933;-79
2021/06/23 18:22:28;;;;;;;;;;;20.30;99.90;;;19.50;91.55;95528.25;10504559;28;2119;-78
2021/06/23 18:27:30;;;;;;;;;;;20.20;99.90;;;19.48;91.89;95527.03;10504969;28;1883;-79
2021/06/23 18:32:33;;;;;;;;;;;20.20;99.90;;;19.47;92.06;95553.50;10503363;28;1652;-79
2021/06/23 18:37:37;;;;;;;;;;;20.10;99.90;;;19.47;90.20;95578.03;10485872;28;2053;-78
2021/06/23 18:42:40;;;;;;;;;;;20.10;99.90;;;19.29;98.10;95558.28;10491862;28;2036;-79
2021/06/23 18:47:43;;;;;;;;;;;20.20;99.90;;;18.60;97.51;95578.63;10503194;28;2328;-78
2021/06/23 18:52:45;;;;;;;;;;;19.80;99.90;;;18.27;100.00;95602.97;10520591;28;1953;-79
2021/06/23 18:57:48;;;;;;;;;;;19.50;99.90;;;17.91;100.00;95589.00;10523690;28;2288;-79
2021/06/23 19:02:51;;;;;;;;;;;19.00;99.90;;;17.81;100.00;95571.94;10518244;28;2372;-77
2021/06/23 19:07:54;;;;;;;;;;;18.80;99.90;;;18.06;100.00;95585.75;10502974;28;2087;-78
2021/06/23 19:12:58;;;;;;;;;;;18.80;99.90;;;17.91;100.00;95600.69;10481707;28;1988;-79
2021/06/23 19:18:01;;;;;;;;;;;18.90;99.90;;;17.77;100.00;95655.25;10502871;28;2181;-77
2021/06/23 19:23:17;;;;;;;;;;;18.80;99.90;;;15.93;100.00;95669.78;10505442;28;1882;-81
2021/06/23 19:28:20;;;;;;;;;;;17.90;99.90;;;14.42;100.00;95627.63;10509584;28;2044;-79
2021/06/23 19:33:22;;;;;;;;;;;16.00;99.90;;;14.37;100.00;95673.72;10508835;28;1779;-79
2021/06/23 19:38:25;;;;;;;;;;;15.40;99.90;;;14.55;100.00;95674.75;10514762;28;1834;-77
2021/06/23 19:43:28;;;;;;;;;;;15.40;99.90;;;14.37;100.00;95660.19;10501872;28;1923;-78
2021/06/23 19:48:31;;;;;;;;;;;15.30;99.90;;;14.54;100.00;95613.66;10517899;28;2134;-78
2021/06/23 19:53:33;;;;;;;;;;;15.30;99.90;;;14.52;100.00;95611.25;10520795;28;1906;-78
2021/06/23 19:58:36;;;;;;;;;;;15.40;99.90;;;14.55;100.00;95578.16;10521787;28;2135;-79
2021/06/23 20:03:39;;;;;;;;;;;15.40;99.90;;;14.63;100.00;95573.16;10525928;28;2023;-77
2021/06/23 20:08:42;;;;;;;;;;;15.50;99.90;;;14.61;100.00;95576.16;10519635;28;1969;-78
2021/06/23 20:13:45;;;;;;;;;;;15.50;99.90;;;14.58;100.00;95574.06;10530959;28;2047;-80
2021/06/23 20:18:48;;;;;;;;;;;15.50;99.90;;;14.43;100.00;95568.94;10527694;28;2054;-79
2021/06/23 20:23:50;;;;;;;;;;;15.40;99.90;;;14.41;100.00;95555.72;10525308;28;2270;-80
2021/06/23 20:28:53;;;;;;;;;;;15.30;99.90;;;14.30;100.00;95565.16;10503056;28;1916;-78
2021/06/23 20:33:56;;;;;;;;;;;15.20;99.90;;;14.23;100.00;95565.56;10526017;28;2036;-77
2021/06/23 20:38:59;;;;;;;;;;;15.10;99.90;;;14.17;100.00;95568.66;10495542;28;1665;-79
2021/06/23 20:44:01;;;;;;;;;;;15.10;99.90;;;14.16;100.00;95565.16;10504421;28;2083;-80
2021/06/23 20:49:04;;;;;;;;;;;15.10;99.90;;;14.12;100.00;95566.06;10501304;28;2291;-77
2021/06/23 20:54:07;;;;;;;;;;;15.00;99.90;;;14.15;100.00;95579.00;10494525;28;1899;-79
2021/06/23 20:59:10;;;;;;;;;;;15.10;99.90;;;14.19;100.00;95586.22;10494600;28;1859;-78
2021/06/23 21:04:12;;;;;;;;;;;15.10;99.90;;;14.23;100.00;95618.84;10475237;28;2000;-80
2021/06/23 21:09:15;;;;;;;;;;;15.20;99.90;;;14.22;100.00;95617.22;10487736;28;2190;-80
2021/06/23 21:14:18;;;;;;;;;;;15.20;99.90;;;14.24;100.00;95623.94;10500149;28;1930;-78
2021/06/23 21:19:21;;;;;;;;;;;15.30;99.90;;;14.24;100.00;95640.16;10478123;28;2047;-77
2021/06/23 21:24:23;;;;;;;;;;;15.30;99.90;;;14.27;100.00;95646.88;10500173;28;1750;-79
2021/06/23 21:29:26;;;;;;;;;;;15.30;99.90;;;14.21;100.00;95648.06;10502246;28;2043;-78
2021/06/23 21:34:30;;;;;;;;;;;15.30;99.90;;;14.26;100.00;95648.78;10511499;28;2056;-79
2021/06/23 21:39:33;;;;;;;;;;;15.30;99.90;;;14.21;100.00;95648.06;10496253;28;2094;-80
2021/06/23 21:44:35;;;;;;;;;;;15.30;99.90;;;14.20;100.00;95668.09;10500351;28;2048;-79
2021/06/23 21:49:38;;;;;;;;;;;15.20;99.90;;;14.22;100.00;95693.72;10499836;28;2211;-81
2021/06/23 21:54:41;;;;;;;;;;;15.30;99.90;;;14.11;100.00;95678.00;10514869;28;2043;-77
2021/06/23 21:59:43;;;;;;;;;;;15.10;99.90;;;14.12;100.00;95715.53;10495940;28;2016;-81
2021/06/23 22:04:46;;;;;;;;;;;15.20;99.90;;;14.34;100.00;95712.97;10500335;28;2023;-80
2021/06/23 22:09:49;;;;;;;;;;;15.30;99.90;;;14.44;100.00;95714.69;10514824;28;2000;-80
2021/06/23 22:14:52;;;;;;;;;;;15.40;99.90;;;14.41;100.00;95723.41;10511301;28;1882;-79
2021/06/23 22:19:55;;;;;;;;;;;15.40;99.90;;;14.41;100.00;95731.50;10502207;28;2062;-78
2021/06/23 22:25:00;;;;;;;;;;;15.70;99.90;;;14.65;100.00;95730.56;10474069;28;2059;-78
2021/06/23 22:30:03;;;;;;;;;;;15.50;99.90;;;14.90;100.00;95731.97;10480673;28;2131;-79
2021/06/23 22:35:06;;;;;;;;;;;15.70;99.90;;;15.11;100.00;95715.00;10489611;28;2016;-79
2021/06/23 22:40:10;;;;;;;;;;;15.90;99.90;;;15.04;100.00;95714.59;10473732;28;2165;-79
2021/06/23 22:45:12;;;;;;;;;;;15.90;99.90;;;15.75;100.00;95760.22;10490211;28;1882;-77
2021/06/23 22:50:17;;;;;;;;;;;16.30;99.90;;;16.21;100.00;95757.97;10495467;28;2175;-79
2021/06/23 22:55:25;;;;;;;;;;;16.60;99.90;;;16.24;98.37;95766.63;10482566;28;2187;-78
2021/06/23 23:00:28;;;;;;;;;;;16.90;99.90;;;16.65;95.77;95778.03;10469014;28;2076;-79
2021/06/23 23:05:32;;;;;;;;;;;17.10;99.90;;;17.07;92.25;95773.13;10480805;28;2152;-79
2021/06/23 23:10:34;;;;;;;;;;;17.50;99.90;;;16.90;92.50;95751.34;10485706;28;2012;-79
2021/06/23 23:15:37;;;;;;;;;;;17.80;99.90;;;17.53;90.42;95761.72;10489859;28;2139;-80
2021/06/23 23:20:40;;;;;;;;;;;17.60;99.90;;;16.95;93.43;95873.38;10487975;28;2084;-79
2021/06/23 23:25:43;;;;;;;;;;;17.70;99.90;;;16.83;93.23;95903.03;10484569;28;2039;-78